Gregory, Arkansas
Current Conditions -  °F | °C
As of 7:56 PM on Friday 19 Dec 2014 (Local Time) from KSRC Reporting Station
Overcast Overcast  
Wind Chill:   Ceiling: 5500
Heat Index:   Visibility: 10mi
Dew Point:   Wind: 7mph
Humidity: 86%   Direction: 30°NNE
Pressure: 30.26"   Gusts: NA
Location:  35.16°N, 91.34°W
Report Text: KSRC 200156Z AUTO 03006KT 10SM OVC055 04/02 A3026 RMK AO2 SLP256 T00440022 TSNO
Loading
Personal Weather Stations






























Interactive Weather Map New forecast layout! Learn more

10-Day Weather Forecast

Advertisements
Track Severe Weather on mobile